Share

Manor, GA (31550)

7:36 PM EDT on April 24, 2014 (GMT -0400)
RAWS JONES ISLAND GA US (MJONG1) Elev 113 ft | 30.83 °N, 82.36 °W | Change Station
Active Advisory: Flood Warning

Current weather conditions updated 35 minutes ago

Mostly Cloudy
Mostly Cloudy
83 °F
Feels Like 84 °F
N
2
Wind Variable Wind from WSW
Gusts 7.0 mph
Sunrise 6:52 AM
Sunset 8:03 PM
Moon Waning Crescent

Tomorrow is forecast to be Cooler than today.

Pressure 29.92 in
Visibility 10.0 miles
Clouds Mostly Cloudy 8500 ft
Heat Index 84 °F
Dew Point 64 °F
Humidity 52%
Rainfall 0.00 in
Snow Depth Not available.
UV 0 out of 16
Pollen 6.70 out of 12
Air Quality Not available.
Flu Activity Sporadic
METAR KHOE 242315Z AUTO 00000KT 10SM BKN085 26/19 A2992 RMK AO2

More Conditions Fewer Conditions

Pressure 29.92 in
Visibility 10.0 miles
Clouds Mostly Cloudy 8500 ft
Heat Index 84 °F
Dew Point 64 °F
Humidity 52%
Rainfall 0.00 in
Snow Depth Not available.
UV 0 out of 16
Pollen 6.70 out of 12
Air Quality Not available.
Flu Activity Sporadic
METAR KHOE 242315Z AUTO 00000KT 10SM BKN085 26/19 A2992 RMK AO2

More Conditions Fewer Conditions

10-Day Weather Forecast

Almanac

Astronomy

Apr. 24, 2014 Rise Set
Actual Time 6:52 AM EDT 8:03 PM EDT
Civil Twilight 6:27 AM EDT 8:29 PM EDT
Nautical Twilight 5:57 AM EDT 8:59 PM EDT
Astronomical Twilight 5:26 AM EDT 9:30 PM EDT
Moon 3:42 AM EDT 3:36 PM EDT
Length of Visible Light 14h 01m
Length of Day
13h 11m
Tomorrow will be 1m 41s longer.
Waning Crescent, 21% of the Moon is Illuminated
Today
Waning Crescent
Apr 29
New
May 6
First Quarter
May 14
Full
May 21
Last Quarter

Today's Extremes

State Highs State Lows

Community

  • Jone Runs Falls
    Jone Runs Falls
  • Easter in Shenandoah National Park
    Easter in Shenandoah National Park
  • Sunset at Apalachicola Bay, Florida
    Sunset at Apalachicola Bay, Florida
  • Clouds mov'n in
    Clouds mov'n in
  • Stacked
    Stacked

WunderPhotos

Upload Photos

1,704,742 photos uploaded!

Nearby

Snow Depth

Station Depth Elevation
No new snow has been reported.

Coastal Water Temperatures

Place Temperature
No Stations Reporting

Earthquake Activity

City Distance Mag. Time & Date
No recent earthquake activity has been reported nearby.
Minimum magnitude displayed is 2.5.

Nearby Weather Stations

Station Location Temp. Heat Index Dew Point Humidity Wind Precip. Elev Updated Type
RAWS JONES ISLAND GA, Manor, GA 83 °F 84 °F 64 °F 52% WSW  at  2 mph 0.00 in / hr 113 ft 7:01 PM EDT MADIS
RAWS OKE-EAST GA, Folkston, GA 80 °F 82 °F 65 °F 60% SE  at  3 mph 0.00 in / hr 68 ft 6:56 PM EDT MADIS
RAWS EDDY TOWER FL, Saint George, GA 85 °F 87 °F 65 °F 51% North  at  0 mph 0.00 in / hr 130 ft 7:04 PM EDT MADIS

Show More Stations Show Fewer Stations

What do you think?

We're not finished. Please let us know what you like, what you don't like, and what you are still missing.